Time;durP1;ratioP1;P1;durP2;ratioP2;P2;SDS_P1;SDS_P2;PMS_P1;PMS_P2;Temp;Humidity;BMP_temperature;BMP_pressure;BME280_temperature;BME280_humidity;BME280_pressure;Samples;Min_cycle;Max_cycle;Signal;HPM_P1;HPM_P2
2022/07/02 00:01:22;;;;;;;5.37;5.10;;;;;;;24.96;87.33;99441.25;5051491;28;20236;-67
2022/07/02 00:03:53;;;;;;;5.70;5.40;;;;;;;24.95;88.14;99444.81;5053026;28;20204;-67
2022/07/02 00:06:21;;;;;;;6.23;5.63;;;;;;;24.95;87.88;99444.00;5033265;28;20200;-67
2022/07/02 00:08:47;;;;;;;5.67;5.37;;;;;;;24.92;87.93;99439.84;5052771;28;20235;-67
2022/07/02 00:11:15;;;;;;;5.10;4.80;;;;;;;24.91;87.62;99447.88;5052951;28;20570;-67
2022/07/02 00:13:43;;;;;;;5.57;5.17;;;;;;;24.91;88.08;99453.13;5050840;28;20287;-66
2022/07/02 00:16:10;;;;;;;6.13;5.63;;;;;;;24.93;88.32;99454.63;5033043;28;20205;-67
2022/07/02 00:18:37;;;;;;;5.23;4.93;;;;;;;24.86;88.70;99439.56;5049802;28;20262;-67
2022/07/02 00:21:06;;;;;;;5.00;4.80;;;;;;;24.93;88.37;99445.94;5037360;28;20201;-67
2022/07/02 00:23:33;;;;;;;5.67;5.27;;;;;;;24.87;88.37;99451.72;5052736;28;20566;-67
2022/07/02 00:26:04;;;;;;;6.70;6.10;;;;;;;24.84;88.02;99442.34;5052422;28;20673;-67
2022/07/02 00:28:37;;;;;;;5.43;5.13;;;;;;;24.81;88.16;99442.59;5052979;28;20228;-67
2022/07/02 00:31:04;;;;;;;5.47;5.10;;;;;;;24.82;87.67;99446.88;5039967;28;20201;-67
2022/07/02 00:33:34;;;;;;;5.20;5.00;;;;;;;24.83;87.70;99448.53;5049105;28;20550;-67
2022/07/02 00:36:01;;;;;;;5.37;5.07;;;;;;;24.86;87.54;99450.06;5051155;28;20193;-66
2022/07/02 00:38:30;;;;;;;6.10;5.63;;;;;;;24.88;87.95;99459.44;5046266;28;20696;-67
2022/07/02 00:40:58;;;;;;;5.77;5.47;;;;;;;24.83;87.35;99438.06;5051373;28;20228;-66
2022/07/02 00:43:25;;;;;;;6.27;5.90;;;;;;;24.86;87.79;99456.13;5051351;28;20596;-67
2022/07/02 00:45:52;;;;;;;5.90;5.60;;;;;;;24.84;87.75;99454.63;5050796;28;20691;-67
2022/07/02 00:48:19;;;;;;;5.67;5.37;;;;;;;24.78;88.55;99458.56;5052259;28;20603;-67
2022/07/02 00:50:46;;;;;;;5.47;5.20;;;;;;;24.72;88.47;99453.84;5052174;28;20203;-67
2022/07/02 00:53:13;;;;;;;5.93;5.63;;;;;;;24.77;88.30;99458.72;5052014;28;20188;-67
2022/07/02 00:55:41;;;;;;;6.80;5.43;;;;;;;24.74;89.27;99472.94;5051638;28;20201;-67
2022/07/02 00:58:08;;;;;;;6.47;5.97;;;;;;;24.74;89.84;99456.34;5050978;28;20205;-67
2022/07/02 01:00:34;;;;;;;6.53;6.23;;;;;;;24.77;89.39;99459.53;5051350;28;20213;-67
2022/07/02 01:03:03;;;;;;;6.60;6.10;;;;;;;24.74;90.21;99451.94;5049376;28;20312;-67
2022/07/02 01:05:30;;;;;;;5.90;5.60;;;;;;;24.69;90.13;99462.00;5031934;28;20197;-67
2022/07/02 01:10:47;;;;;;;5.73;5.43;;;;;;;24.65;90.85;99442.28;5051936;28;20294;-67
2022/07/02 01:13:16;;;;;;;7.40;6.70;;;;;;;24.61;90.44;99446.13;5038678;28;20240;-67
2022/07/02 01:15:42;;;;;;;7.47;6.90;;;;;;;24.57;90.70;99449.97;5039159;28;20258;-67
2022/07/02 01:18:10;;;;;;;6.70;6.23;;;;;;;24.58;90.43;99456.88;5051346;28;20239;-67
2022/07/02 01:20:37;;;;;;;6.23;5.73;;;;;;;24.63;90.79;99449.41;5051642;28;20270;-67
2022/07/02 01:23:06;;;;;;;6.90;6.50;;;;;;;24.61;90.30;99438.25;5051263;28;20574;-67
2022/07/02 01:25:33;;;;;;;6.60;6.10;;;;;;;24.70;90.02;99445.31;5051685;28;20755;-67
2022/07/02 01:28:00;;;;;;;5.73;5.33;;;;;;;24.68;90.08;99447.25;5051483;28;20554;-67
2022/07/02 01:30:27;;;;;;;5.83;5.53;;;;;;;24.62;90.57;99452.19;5042989;28;20197;-67
2022/07/02 01:32:54;;;;;;;6.23;5.83;;;;;;;24.59;90.81;99453.25;5051568;28;20200;-67
2022/07/02 01:35:21;;;;;;;9.60;6.40;;;;;;;24.59;90.72;99458.50;5049927;28;20197;-67
2022/07/02 01:37:49;;;;;;;6.30;5.90;;;;;;;24.59;90.49;99452.47;5051368;28;20193;-67
2022/07/02 01:40:17;;;;;;;6.60;6.00;;;;;;;24.56;90.70;99453.53;5050894;28;20224;-67
2022/07/02 01:42:44;;;;;;;6.47;5.93;;;;;;;24.51;90.66;99459.19;5045081;28;20213;-67
2022/07/02 01:45:11;;;;;;;7.27;6.77;;;;;;;24.42;90.79;99457.38;5032617;28;20197;-67
2022/07/02 01:47:37;;;;;;;7.50;6.90;;;;;;;24.43;91.28;99463.41;5051114;28;20258;-67
2022/07/02 01:50:05;;;;;;;6.30;6.00;;;;;;;24.45;90.88;99461.50;5042373;28;20201;-67
2022/07/02 01:52:32;;;;;;;6.10;5.80;;;;;;;24.42;90.46;99457.38;5049339;28;20680;-67
2022/07/02 01:54:59;;;;;;;6.43;6.03;;;;;;;24.37;90.74;99453.47;5050976;28;20201;-67
2022/07/02 01:57:29;;;;;;;7.10;6.70;;;;;;;24.30;91.32;99453.16;5046194;28;20200;-66
2022/07/02 01:59:56;;;;;;;7.43;6.93;;;;;;;24.29;91.55;99450.69;5051007;28;20247;-67
2022/07/02 02:02:23;;;;;;;6.93;6.40;;;;;;;24.28;92.12;99459.50;5050549;28;20229;-67
2022/07/02 02:04:50;;;;;;;7.43;6.70;;;;;;;24.26;91.56;99456.19;5051064;28;20685;-67
2022/07/02 02:07:16;;;;;;;7.33;6.83;;;;;;;24.23;91.57;99456.47;5050977;28;20205;-67
2022/07/02 02:09:43;;;;;;;6.97;6.30;;;;;;;24.25;91.53;99451.91;5050939;28;20254;-67
2022/07/02 02:12:10;;;;;;;6.33;5.93;;;;;;;24.16;91.52;99434.34;5050745;28;20192;-67
2022/07/02 02:14:38;;;;;;;7.87;7.17;;;;;;;24.28;91.29;99454.25;5050914;28;20197;-66
2022/07/02 02:17:06;;;;;;;6.17;5.67;;;;;;;24.30;91.32;99462.81;5050821;28;20200;-67
2022/07/02 02:19:33;;;;;;;6.90;6.57;;;;;;;24.31;91.62;99456.63;5050752;28;20203;-67
2022/07/02 02:22:00;;;;;;;7.23;6.73;;;;;;;24.34;91.20;99451.09;5050733;28;20199;-67
2022/07/02 02:24:27;;;;;;;6.07;5.70;;;;;;;24.35;91.39;99461.47;5050587;28;20672;-66
2022/07/02 02:26:53;;;;;;;6.17;5.73;;;;;;;24.34;91.39;99459.81;5054288;28;20219;-67
2022/07/02 02:29:21;;;;;;;6.80;6.30;;;;;;;24.33;92.06;99457.34;5054961;28;20701;-67
2022/07/02 02:31:49;;;;;;;8.63;6.77;;;;;;;24.32;92.04;99456.50;5054714;28;20254;-67
2022/07/02 02:34:16;;;;;;;9.23;6.63;;;;;;;24.34;91.69;99465.03;5052547;28;20204;-67
2022/07/02 02:36:43;;;;;;;8.30;7.70;;;;;;;24.33;91.45;99463.38;5053498;28;20208;-66
2022/07/02 02:39:10;;;;;;;8.17;7.43;;;;;;;24.32;91.99;99466.16;5047430;28;20201;-67
2022/07/02 02:41:37;;;;;;;7.73;7.10;;;;;;;24.21;92.68;99474.91;5034304;28;20228;-67
2022/07/02 02:44:04;;;;;;;10.50;6.70;;;;;;;24.15;92.97;99474.59;5034639;28;20221;-67
2022/07/02 02:46:30;;;;;;;6.23;5.60;;;;;;;24.15;92.69;99474.59;5052701;28;20204;-67
2022/07/02 02:48:59;;;;;;;6.53;5.93;;;;;;;24.12;92.76;99475.69;5053649;28;20193;-67
2022/07/02 02:51:25;;;;;;;7.37;6.53;;;;;;;24.05;93.46;99475.34;5052998;28;20212;-67
2022/07/02 02:53:53;;;;;;;7.17;6.60;;;;;;;23.98;92.84;99473.38;5052871;28;20212;-67
2022/07/02 02:56:20;;;;;;;7.80;7.30;;;;;;;23.88;93.13;99483.78;5054361;28;20201;-67
2022/07/02 02:58:47;;;;;;;7.23;6.63;;;;;;;23.83;92.87;99480.75;5041515;28;20201;-67
2022/07/02 03:01:13;;;;;;;7.60;7.10;;;;;;;23.76;93.99;99479.59;5051231;28;20228;-67
2022/07/02 03:03:40;;;;;;;7.23;6.77;;;;;;;23.72;93.80;99478.16;5035487;28;20217;-66
2022/07/02 03:06:08;;;;;;;7.27;6.77;;;;;;;23.70;94.23;99472.25;5039792;28;20623;-67
2022/07/02 03:08:35;;;;;;;6.77;6.27;;;;;;;23.71;93.97;99480.94;5053082;28;20197;-67
2022/07/02 03:11:02;;;;;;;6.83;6.23;;;;;;;23.71;93.70;99484.38;5051753;28;20197;-67
2022/07/02 03:13:29;;;;;;;7.57;6.77;;;;;;;23.71;94.48;99483.53;5042839;28;20246;-67
2022/07/02 03:15:56;;;;;;;7.73;7.27;;;;;;;23.66;94.12;99483.91;5052159;28;20576;-67
2022/07/02 03:18:22;;;;;;;7.77;7.17;;;;;;;23.65;94.75;99490.09;5052090;28;20205;-67
2022/07/02 03:20:49;;;;;;;7.53;6.83;;;;;;;23.63;95.17;99489.41;5051725;28;20580;-66
2022/07/02 03:23:17;;;;;;;9.33;7.23;;;;;;;23.58;96.27;99486.34;5052092;28;20220;-67
2022/07/02 03:25:44;;;;;;;8.10;7.60;;;;;;;23.46;97.58;99495.19;5035792;28;20713;-67
2022/07/02 03:28:11;;;;;;;7.97;7.57;;;;;;;23.37;98.69;99503.75;5051231;28;20192;-67
2022/07/02 03:30:38;;;;;;;8.80;8.20;;;;;;;23.33;99.67;99497.09;5053804;28;20545;-67
2022/07/02 03:33:05;;;;;;;7.80;7.37;;;;;;;23.31;100.00;99502.47;5053593;28;20262;-66
2022/07/02 03:35:31;;;;;;;8.00;7.50;;;;;;;23.31;100.00;99509.47;5037719;28;20197;-67
2022/07/02 03:37:58;;;;;;;8.70;8.20;;;;;;;23.36;100.00;99518.63;5033003;28;20205;-66
2022/07/02 03:40:27;;;;;;;7.70;7.20;;;;;;;23.34;100.00;99514.47;5033528;28;20229;-67
2022/07/02 03:42:54;;;;;;;7.87;7.47;;;;;;;23.38;100.00;99513.28;5051772;28;20216;-66
2022/07/02 03:45:21;;;;;;;8.67;8.07;;;;;;;23.46;100.00;99513.50;5053402;28;20205;-67
2022/07/02 03:47:48;;;;;;;8.47;7.97;;;;;;;23.62;100.00;99513.09;5052531;28;20205;-67
2022/07/02 03:50:14;;;;;;;7.80;7.30;;;;;;;23.77;100.00;99517.06;5053087;28;20212;-67
2022/07/02 03:52:41;;;;;;;7.50;7.10;;;;;;;23.95;100.00;99521.59;5052537;28;20196;-67
2022/07/02 03:55:09;;;;;;;8.57;7.87;;;;;;;24.16;100.00;99512.94;5052664;28;20300;-67
2022/07/02 03:57:37;;;;;;;7.30;6.90;;;;;;;24.34;100.00;99514.00;5052708;28;20223;-67
2022/07/02 04:00:05;;;;;;;8.67;8.07;;;;;;;24.53;99.15;99516.72;5050807;28;20577;-67
2022/07/02 04:02:32;;;;;;;7.93;7.40;;;;;;;24.72;97.62;99521.22;5053096;28;20203;-67
2022/07/02 04:04:58;;;;;;;7.67;7.23;;;;;;;24.88;97.92;99521.59;5043249;28;20200;-67
2022/07/02 04:07:25;;;;;;;9.33;8.60;;;;;;;24.99;97.29;99530.16;5033133;28;20201;-67
2022/07/02 04:09:52;;;;;;;8.47;7.57;;;;;;;25.15;96.38;99529.63;5048637;28;20208;-67
2022/07/02 04:12:19;;;;;;;8.20;7.70;;;;;;;25.34;94.56;99529.66;5052870;28;20197;-67
2022/07/02 04:14:47;;;;;;;8.60;8.00;;;;;;;25.50;94.22;99539.66;5053163;28;20196;-67
2022/07/02 04:17:14;;;;;;;7.50;7.10;;;;;;;25.66;93.50;99539.94;5052605;28;20205;-67
2022/07/02 04:19:41;;;;;;;9.60;7.37;;;;;;;25.85;92.18;99539.94;5052954;28;20580;-67
2022/07/02 04:22:08;;;;;;;8.60;8.10;;;;;;;26.04;90.62;99534.66;5052760;28;20208;-67
2022/07/02 04:24:34;;;;;;;8.30;7.70;;;;;;;26.23;89.42;99539.09;5052600;28;20221;-67
2022/07/02 04:27:01;;;;;;;10.00;9.00;;;;;;;26.41;88.22;99531.28;5052689;28;20230;-67
2022/07/02 04:29:28;;;;;;;7.33;6.93;;;;;;;26.60;87.56;99533.84;5052588;28;20668;-67
2022/07/02 04:31:56;;;;;;;9.03;8.30;;;;;;;26.76;85.21;99530.56;5052730;28;20200;-67
2022/07/02 04:34:23;;;;;;;8.40;7.90;;;;;;;26.84;83.65;99534.19;5052397;28;20580;-66
2022/07/02 04:36:50;;;;;;;8.40;7.77;;;;;;;26.92;84.57;99526.38;5051061;28;20207;-67
2022/07/02 04:39:17;;;;;;;11.37;9.30;;;;;;;26.97;82.81;99532.03;5035364;28;20581;-67
2022/07/02 04:41:44;;;;;;;14.53;9.67;;;;;;;27.08;83.37;99526.56;5032397;28;20201;-67
2022/07/02 04:44:11;;;;;;;9.77;9.20;;;;;;;27.16;82.34;99538.16;5033565;28;20221;-67
2022/07/02 04:46:37;;;;;;;10.17;9.37;;;;;;;27.17;83.29;99534.56;5049645;28;20207;-67
2022/07/02 04:49:06;;;;;;;9.07;8.47;;;;;;;27.19;83.07;99533.44;5048683;28;20207;-67
2022/07/02 04:51:32;;;;;;;9.13;8.43;;;;;;;27.30;82.90;99535.03;5051965;28;20247;-67
2022/07/02 04:53:59;;;;;;;9.20;8.60;;;;;;;27.31;82.01;99539.28;5052297;28;20216;-67
2022/07/02 04:56:28;;;;;;;8.97;8.27;;;;;;;27.30;82.14;99540.28;5051929;28;20212;-66
2022/07/02 04:58:55;;;;;;;8.47;7.67;;;;;;;27.41;82.83;99542.69;5052016;28;20275;-67
2022/07/02 05:01:23;;;;;;;8.57;8.07;;;;;;;27.49;82.29;99538.38;5051904;28;20209;-67
2022/07/02 05:03:50;;;;;;;8.87;8.17;;;;;;;27.63;82.37;99547.53;5051533;28;20247;-67
2022/07/02 05:06:19;;;;;;;10.37;7.47;;;;;;;27.80;81.63;99538.81;5051750;28;20239;-67
2022/07/02 05:08:46;;;;;;;8.97;8.17;;;;;;;27.98;79.43;99542.25;5051539;28;20192;-67
2022/07/02 05:11:13;;;;;;;7.57;7.20;;;;;;;28.11;80.66;99520.81;5051634;28;20708;-67
2022/07/02 05:13:40;;;;;;;7.80;7.40;;;;;;;28.48;79.28;99538.97;5051469;28;20200;-67
2022/07/02 05:16:07;;;;;;;7.33;6.93;;;;;;;28.70;77.45;99533.19;5051774;28;20262;-67
2022/07/02 05:18:34;;;;;;;8.23;7.60;;;;;;;28.96;76.47;99533.94;5051554;28;20584;-66
2022/07/02 05:21:01;;;;;;;8.07;7.53;;;;;;;29.14;74.74;99526.72;5051202;28;20197;-67
2022/07/02 05:23:29;;;;;;;8.40;7.63;;;;;;;29.35;75.50;99538.69;5051347;28;20232;-67
2022/07/02 05:25:56;;;;;;;8.27;7.77;;;;;;;29.52;74.26;99540.38;5051059;28;20193;-67
2022/07/02 05:28:23;;;;;;;8.48;7.93;;;;;;;29.74;73.41;99542.38;5051561;28;20200;-67
2022/07/02 05:30:51;;;;;;;8.90;8.30;;;;;;;30.00;73.26;99537.78;5050965;28;20208;-67
2022/07/02 05:33:17;;;;;;;8.43;8.02;;;;;;;30.23;72.28;99542.38;5051601;28;20197;-67
2022/07/02 05:35:44;;;;;;;8.65;7.95;;;;;;;30.47;71.18;99550.31;5051066;28;20211;-67
2022/07/02 05:38:11;;;;;;;7.82;7.32;;;;;;;30.70;70.88;99551.19;5050979;28;20259;-67
2022/07/02 05:40:39;;;;;;;8.38;7.72;;;;;;;30.77;69.27;99549.53;5042637;28;20294;-67
2022/07/02 05:43:06;;;;;;;9.00;8.23;;;;;;;30.94;69.20;99550.28;5050652;28;20197;-67
2022/07/02 05:45:33;;;;;;;8.32;7.68;;;;;;;31.15;69.59;99546.06;5050063;28;20197;-67
2022/07/02 05:48:00;;;;;;;17.50;9.27;;;;;;;31.26;67.56;99541.38;5049707;28;20200;-67
2022/07/02 05:50:27;;;;;;;8.63;7.88;;;;;;;31.45;67.47;99551.53;5050952;28;20209;-67
2022/07/02 05:52:53;;;;;;;8.02;7.53;;;;;;;31.59;66.18;99550.81;5050564;28;20211;-67
2022/07/02 05:55:20;;;;;;;7.68;7.18;;;;;;;31.67;64.68;99553.38;5046192;28;20197;-67
2022/07/02 05:57:49;;;;;;;8.23;7.72;;;;;;;31.78;65.47;99552.97;5047628;28;20665;-67
2022/07/02 06:00:16;;;;;;;7.28;6.85;;;;;;;31.86;64.47;99546.78;5050620;28;20695;-66
2022/07/02 06:02:44;;;;;;;7.07;6.53;;;;;;;31.90;62.29;99558.66;5050787;28;20204;-67
2022/07/02 06:08:00;;;;;;;7.57;6.85;;;;;;;32.31;62.49;99556.50;5030533;28;20197;-67
2022/07/02 06:10:27;;;;;;;6.95;6.50;;;;;;;32.25;60.16;99553.56;5050829;28;20200;-67
2022/07/02 06:12:55;;;;;;;7.20;6.57;;;;;;;32.30;60.40;99565.47;5050655;28;20197;-67
2022/07/02 06:15:23;;;;;;;7.18;6.78;;;;;;;32.42;61.02;99556.03;5049427;28;20200;-67
2022/07/02 06:17:50;;;;;;;7.00;6.57;;;;;;;32.56;60.67;99557.88;5050635;28;20201;-67
2022/07/02 06:20:17;;;;;;;7.25;6.63;;;;;;;32.77;57.96;99563.31;5050386;28;20201;-67
2022/07/02 06:22:44;;;;;;;7.72;7.03;;;;;;;32.92;58.33;99565.97;5050893;28;20208;-67
2022/07/02 06:25:11;;;;;;;8.15;7.65;;;;;;;33.18;58.31;99567.13;5050245;28;20704;-67
2022/07/02 06:27:38;;;;;;;7.88;7.28;;;;;;;33.38;56.63;99562.03;5050719;28;20200;-67
2022/07/02 06:30:08;;;;;;;7.00;6.70;;;;;;;33.57;54.85;99560.59;5050461;28;20718;-66
2022/07/02 06:32:35;;;;;;;6.65;6.22;;;;;;;33.58;56.60;99572.84;5050440;28;20775;-66
2022/07/02 06:35:03;;;;;;;7.70;7.15;;;;;;;33.69;56.60;99564.44;5050654;28;20204;-67
2022/07/02 06:37:30;;;;;;;7.78;7.25;;;;;;;33.88;57.22;99562.94;5050509;28;20577;-66
2022/07/02 06:39:57;;;;;;;8.10;7.50;;;;;;;33.99;55.45;99570.44;5049205;28;20220;-67
2022/07/02 06:42:25;;;;;;;8.18;7.50;;;;;;;34.16;55.32;99569.97;5049294;28;20204;-67
2022/07/02 06:44:54;;;;;;;6.95;6.60;;;;;;;34.11;54.64;99574.22;5049316;28;20653;-66
2022/07/02 06:47:22;;;;;;;7.72;7.22;;;;;;;34.24;54.42;99567.19;5048349;28;20619;-67
2022/07/02 06:49:50;;;;;;;7.38;6.88;;;;;;;34.21;55.53;99567.56;5050319;28;20204;-67
2022/07/02 06:52:17;;;;;;;6.55;6.25;;;;;;;34.25;56.32;99566.13;5050225;28;20201;-67
2022/07/02 06:54:45;;;;;;;7.75;6.95;;;;;;;34.51;52.53;99570.00;5050366;28;20200;-67
2022/07/02 06:57:12;;;;;;;7.22;6.55;;;;;;;34.74;50.58;99565.22;5050223;28;20203;-67
2022/07/02 06:59:39;;;;;;;6.88;6.57;;;;;;;35.00;50.41;99573.34;5048837;28;20580;-67
2022/07/02 07:02:06;;;;;;;7.95;7.07;;;;;;;35.13;49.04;99565.44;5050467;28;20204;-67
2022/07/02 07:04:35;;;;;;;7.40;7.00;;;;;;;35.16;49.69;99570.38;5046786;28;20224;-66
2022/07/02 07:07:05;;;;;;;7.45;7.05;;;;;;;35.37;50.08;99571.25;5048909;28;20200;-67
2022/07/02 07:09:34;;;;;;;7.05;6.75;;;;;;;35.22;47.48;99574.88;5049563;28;20204;-67
2022/07/02 07:12:01;;;;;;;6.80;6.18;;;;;;;35.27;48.37;99579.63;5051121;28;20204;-66
2022/07/02 07:14:29;;;;;;;7.53;6.68;;;;;;;35.14;48.10;99580.41;5054141;28;20212;-66
2022/07/02 07:16:56;;;;;;;6.70;6.40;;;;;;;34.82;47.62;99583.72;5035552;28;20193;-67
2022/07/02 07:19:23;;;;;;;6.20;5.72;;;;;;;35.02;51.28;99583.81;5034180;28;20198;-66
2022/07/02 07:21:51;;;;;;;6.65;6.25;;;;;;;35.35;49.59;99589.31;5052779;28;20201;-66
2022/07/02 07:24:18;;;;;;;6.70;6.22;;;;;;;35.64;48.64;99581.78;5045830;28;20219;-67
2022/07/02 07:26:45;;;;;;;6.85;6.10;;;;;;;35.69;48.96;99586.53;5053893;28;20576;-67
2022/07/02 07:29:14;;;;;;;6.70;6.30;;;;;;;35.77;48.83;99583.66;5047746;28;20668;-66
2022/07/02 07:31:41;;;;;;;6.65;6.25;;;;;;;35.90;49.59;99583.66;5051337;28;20199;-67
2022/07/02 07:34:08;;;;;;;7.60;7.20;;;;;;;35.95;49.13;99575.88;5051692;28;20189;-67
2022/07/02 07:36:36;;;;;;;7.05;6.45;;;;;;;36.02;48.29;99582.03;5050115;28;20685;-67
2022/07/02 07:39:05;;;;;;;7.47;7.10;;;;;;;35.62;47.00;99591.03;5052333;28;20196;-67
2022/07/02 07:41:32;;;;;;;6.22;5.93;;;;;;;35.67;47.82;99583.25;5050608;28;20807;-67
2022/07/02 07:43:59;;;;;;;7.15;6.57;;;;;;;35.30;46.13;99545.41;5051224;28;20252;-67
2022/07/02 07:46:26;;;;;;;6.53;6.18;;;;;;;35.37;45.91;99592.59;5052574;28;20585;-67
2022/07/02 07:48:54;;;;;;;7.88;7.28;;;;;;;35.51;48.79;99584.41;5052867;28;20201;-67
2022/07/02 07:51:21;;;;;;;7.22;6.82;;;;;;;35.66;47.68;99584.28;5052838;28;20207;-67
2022/07/02 07:53:48;;;;;;;6.32;6.03;;;;;;;35.76;50.01;99577.53;5052795;28;20233;-66
2022/07/02 07:56:17;;;;;;;6.55;6.20;;;;;;;35.87;48.78;99583.28;5053588;28;20231;-67
2022/07/02 07:58:43;;;;;;;6.82;6.53;;;;;;;35.99;47.82;99579.78;5053328;28;20699;-66
2022/07/02 08:01:11;;;;;;;7.25;6.95;;;;;;;36.15;47.73;99582.06;5053012;28;20822;-67
2022/07/02 08:03:37;;;;;;;7.25;6.88;;;;;;;36.26;46.31;99584.09;5052937;28;20196;-67
2022/07/02 08:06:05;;;;;;;7.43;7.13;;;;;;;36.29;48.27;99591.69;5052644;28;20292;-67
2022/07/02 08:08:31;;;;;;;7.65;7.00;;;;;;;36.64;46.02;99592.28;5052724;28;20204;-67
2022/07/02 08:10:58;;;;;;;7.20;6.80;;;;;;;36.75;46.49;99591.66;5052512;28;20197;-67
2022/07/02 08:13:26;;;;;;;8.13;7.65;;;;;;;36.64;44.47;99591.47;5052871;28;21558;-67
2022/07/02 08:15:53;;;;;;;6.93;6.47;;;;;;;36.65;43.58;99585.09;5052769;28;20193;-67
2022/07/02 08:18:20;;;;;;;8.00;7.38;;;;;;;36.91;43.57;99595.69;5052614;28;20200;-67
2022/07/02 08:20:47;;;;;;;7.40;7.00;;;;;;;36.94;42.16;99587.25;5052781;28;20599;-67
2022/07/02 08:23:14;;;;;;;7.10;6.80;;;;;;;37.04;42.58;99590.34;5044018;28;20196;-67
2022/07/02 08:25:41;;;;;;;6.82;6.43;;;;;;;37.09;41.92;99595.06;5052845;28;20212;-67
2022/07/02 08:28:07;;;;;;;7.30;6.90;;;;;;;37.19;41.50;99596.22;5052302;28;20569;-67
2022/07/02 08:30:36;;;;;;;9.93;7.70;;;;;;;37.24;44.62;99604.44;5052357;28;20197;-67
2022/07/02 08:33:03;;;;;;;7.25;6.70;;;;;;;37.33;45.47;99597.81;5052315;28;20200;-67
2022/07/02 08:35:29;;;;;;;6.65;6.38;;;;;;;37.42;40.82;99595.69;5051561;28;20691;-67
2022/07/02 08:37:56;;;;;;;7.70;7.10;;;;;;;37.41;43.49;99598.59;5051800;28;20208;-70
2022/07/02 08:40:25;;;;;;;7.80;7.40;;;;;;;37.35;43.31;99595.72;5049135;28;20451;-65
2022/07/02 08:42:54;;;;;;;17.63;7.93;;;;;;;37.47;42.74;99600.44;5050900;28;20212;-65
2022/07/02 08:45:22;;;;;;;8.15;7.72;;;;;;;37.44;40.90;99590.16;5050990;28;20308;-65
2022/07/02 08:47:54;;;;;;;7.65;7.00;;;;;;;37.47;40.82;99603.13;5051403;28;20673;-65
2022/07/02 08:50:21;;;;;;;7.20;6.90;;;;;;;37.63;42.87;99595.41;5045691;28;20197;-65
2022/07/02 08:52:51;;;;;;;7.70;7.10;;;;;;;37.77;42.84;99588.13;5047885;28;20197;-65
2022/07/02 08:55:19;;;;;;;7.57;7.13;;;;;;;37.85;41.56;99590.50;5031583;28;20205;-65
2022/07/02 08:57:47;;;;;;;7.45;6.93;;;;;;;37.81;40.40;99594.66;5049982;28;20197;-65
2022/07/02 09:00:15;;;;;;;7.65;7.25;;;;;;;37.79;42.53;99596.72;5050526;28;20197;-65
2022/07/02 09:02:43;;;;;;;7.03;6.68;;;;;;;37.84;40.29;99602.25;5045797;28;20211;-65
2022/07/02 09:05:13;;;;;;;7.30;6.75;;;;;;;38.06;40.57;99592.84;5049031;28;20221;-65
2022/07/02 09:07:40;;;;;;;6.72;6.43;;;;;;;37.88;40.16;99599.94;5048666;28;20205;-65
2022/07/02 09:10:10;;;;;;;6.10;5.60;;;;;;;37.77;41.14;99593.47;5049084;28;20318;-65
2022/07/02 09:12:38;;;;;;;6.10;5.80;;;;;;;37.90;41.96;99595.22;5048104;28;20287;-65
2022/07/02 09:15:06;;;;;;;7.45;6.80;;;;;;;37.90;42.87;99593.38;5048276;28;20200;-65
2022/07/02 09:17:34;;;;;;;7.13;6.72;;;;;;;37.59;41.32;99590.69;5048161;28;20291;-64
2022/07/02 09:20:01;;;;;;;7.20;6.68;;;;;;;37.44;41.83;99592.81;5048589;28;20797;-65
2022/07/02 09:22:36;;;;;;;6.18;5.97;;;;;;;37.64;40.37;99593.56;5048288;28;20582;-65
2022/07/02 09:25:15;;;;;;;7.28;6.95;;;;;;;37.85;41.23;99593.19;5048335;28;20216;-65
2022/07/02 09:27:43;;;;;;;6.78;6.47;;;;;;;37.86;39.81;99592.16;5049930;28;20196;-65
2022/07/02 09:30:12;;;;;;;6.88;6.57;;;;;;;37.88;40.65;99589.25;5043668;28;20594;-65
2022/07/02 09:32:44;;;;;;;6.28;5.85;;;;;;;37.60;40.91;99592.34;5050515;28;20703;-65
2022/07/02 09:35:18;;;;;;;6.78;6.47;;;;;;;37.71;39.54;99588.94;5047466;28;20700;-63
2022/07/02 09:37:47;;;;;;;6.47;6.00;;;;;;;37.15;40.05;99597.69;5050803;28;20660;-63
2022/07/02 09:40:14;;;;;;;5.55;5.25;;;;;;;37.02;38.58;99588.91;5048129;28;20236;-64
2022/07/02 09:42:46;;;;;;;5.38;5.18;;;;;;;37.25;41.63;99591.91;5047913;28;20499;-64
2022/07/02 09:45:14;;;;;;;5.60;5.20;;;;;;;37.30;40.11;99579.50;5047144;28;20311;-65
2022/07/02 09:47:44;;;;;;;7.55;7.03;;;;;;;37.00;38.25;99591.78;5048955;28;20196;-63
2022/07/02 09:50:12;;;;;;;5.63;5.25;;;;;;;37.09;40.53;99585.19;5048444;28;20255;-64
2022/07/02 09:52:49;;;;;;;6.25;5.95;;;;;;;36.73;39.03;99579.53;5049837;28;20205;-63
2022/07/02 09:55:20;;;;;;;6.45;5.95;;;;;;;36.60;39.27;99582.25;5049547;28;20573;-64
2022/07/02 09:57:50;;;;;;;6.30;6.00;;;;;;;36.67;40.97;99580.38;5048908;28;20197;-64
2022/07/02 10:00:18;;;;;;;6.47;6.07;;;;;;;36.75;40.29;99577.47;5049908;28;20204;-69
2022/07/02 10:02:45;;;;;;;5.95;5.75;;;;;;;36.92;41.54;99578.63;5051147;28;20735;-68
2022/07/02 10:05:12;;;;;;;6.32;5.90;;;;;;;36.86;37.83;99574.16;5049505;28;20260;-69
2022/07/02 10:07:39;;;;;;;4.85;4.65;;;;;;;36.93;37.42;99587.47;5049550;28;20201;-68
2022/07/02 10:10:09;;;;;;;4.72;4.53;;;;;;;36.73;38.58;99584.88;5042419;28;20201;-68
2022/07/02 10:12:37;;;;;;;4.90;4.65;;;;;;;36.57;37.10;99571.97;5044236;28;20196;-68
2022/07/02 10:15:06;;;;;;;5.63;5.22;;;;;;;36.16;38.81;99573.03;5040977;28;20197;-69
2022/07/02 10:17:35;;;;;;;4.93;4.72;;;;;;;36.32;40.12;99572.59;5050937;28;20236;-68
2022/07/02 10:20:04;;;;;;;4.30;4.18;;;;;;;36.29;40.23;99556.97;5051212;28;20297;-68
2022/07/02 10:22:32;;;;;;;5.10;4.90;;;;;;;36.56;39.29;99568.47;5048781;28;20193;-69
2022/07/02 10:24:59;;;;;;;5.00;4.78;;;;;;;36.79;38.24;99568.00;5049869;28;20217;-69
2022/07/02 10:27:29;;;;;;;4.80;4.60;;;;;;;36.52;38.40;99571.72;5050604;28;20270;-68
2022/07/02 10:29:57;;;;;;;5.30;4.90;;;;;;;36.28;38.72;99568.72;5050869;28;20652;-68
2022/07/02 10:32:29;;;;;;;5.70;5.47;;;;;;;36.27;40.45;99563.56;5044742;28;20656;-67
2022/07/02 10:35:06;;;;;;;5.47;5.25;;;;;;;36.40;39.15;99568.06;5048210;28;20573;-69
2022/07/02 10:37:33;;;;;;;5.50;5.30;;;;;;;36.22;39.64;99555.38;5049628;28;20204;-67
2022/07/02 10:40:02;;;;;;;5.63;5.32;;;;;;;36.33;40.04;99555.56;5049142;28;20224;-69
2022/07/02 10:42:42;;;;;;;4.50;4.28;;;;;;;36.29;37.35;99546.31;5049233;28;20588;-68
2022/07/02 10:45:12;;;;;;;4.38;4.18;;;;;;;36.57;38.56;99558.63;5038305;28;20208;-72
2022/07/02 10:47:53;;;;;;;5.15;4.95;;;;;;;36.87;38.19;99554.38;5043985;28;20200;-71
2022/07/02 10:50:20;;;;;;;6.28;5.85;;;;;;;37.10;38.71;99560.06;5052307;28;20246;-69
2022/07/02 10:52:52;;;;;;;5.32;4.95;;;;;;;37.03;38.38;99553.13;5054620;28;20208;-67
2022/07/02 10:55:27;;;;;;;5.13;4.82;;;;;;;36.71;38.43;99544.16;5052756;28;20204;-73
2022/07/02 10:57:59;;;;;;;4.88;4.63;;;;;;;36.71;37.66;99553.00;5051367;28;20687;-69
2022/07/02 11:00:28;;;;;;;5.43;5.15;;;;;;;36.64;38.68;99544.19;5036734;28;20208;-71
2022/07/02 11:02:57;;;;;;;5.63;5.32;;;;;;;36.62;39.40;99540.91;5043800;28;20197;-70
2022/07/02 11:05:24;;;;;;;5.50;5.28;;;;;;;36.71;39.70;99533.47;5051051;28;20212;-71
2022/07/02 11:07:51;;;;;;;5.15;4.95;;;;;;;36.89;37.98;99544.31;5047433;28;20715;-72
2022/07/02 11:10:26;;;;;;;5.22;4.93;;;;;;;36.75;39.15;99540.88;5051342;28;20212;-70
2022/07/02 11:12:58;;;;;;;5.13;4.93;;;;;;;36.69;38.01;99546.25;5052710;28;20200;-68
2022/07/02 11:15:35;;;;;;;5.82;5.30;;;;;;;36.74;39.77;99543.75;5052148;28;20766;-71
2022/07/02 11:18:06;;;;;;;5.20;5.00;;;;;;;36.81;40.25;99540.03;5051850;28;20577;-72
2022/07/02 11:20:35;;;;;;;5.28;5.00;;;;;;;36.80;39.76;99534.91;5049903;28;20190;-71
2022/07/02 11:23:03;;;;;;;5.63;5.15;;;;;;;36.35;38.17;99541.19;5049131;28;20217;-72
2022/07/02 11:25:31;;;;;;;4.55;4.35;;;;;;;36.29;39.61;99540.13;5053073;28;20228;-70
2022/07/02 11:27:59;;;;;;;4.93;4.72;;;;;;;36.10;39.18;99541.81;5049716;28;20208;-65
2022/07/02 11:30:28;;;;;;;4.82;4.63;;;;;;;36.27;40.59;99537.69;5051413;28;20648;-70
2022/07/02 11:32:55;;;;;;;4.95;4.75;;;;;;;36.40;39.15;99541.34;5051279;28;20204;-68
2022/07/02 11:35:23;;;;;;;4.40;4.20;;;;;;;36.36;40.46;99529.44;5053364;28;20712;-70
2022/07/02 11:37:49;;;;;;;5.07;4.80;;;;;;;36.33;39.49;99534.19;5052167;28;20207;-70
2022/07/02 11:40:20;;;;;;;4.93;4.72;;;;;;;36.51;39.92;99522.03;5050741;28;20612;-71